Friday, September 21, 2018, 3:59 AM EDT
Back to Local

KEWR, Newark International Airport

Location: Elizabeth, NJ, United States Lat: 40.683
Local Time: 3:59 AM EDT ( 7:59 GMT) Lon: -74.167
Time Zone: US/Eastern Elev: 16 ft

Show me the last for .
Show Decoded

2018-09-21 03:30 METAR KEWR 210730Z 19005KT 10SM SCT027 BKN035 OVC060 19/16 A3023 RMK AO2
                 T01940156 $ =
2018-09-21 02:51 METAR KEWR 210651Z 17006KT 10SM SCT023 BKN029 OVC060 20/16 A3023 RMK AO2 SLP236
                 T02000156 $ =
2018-09-21 01:51 METAR KEWR 210551Z 15006KT 10SM FEW023 BKN029 OVC055 20/16 A3024 RMK AO2 SLP239
                 T02000156 10206 20200 58003 $ =
2018-09-21 00:51 METAR KEWR 210451Z 14007KT 10SM SCT023 BKN029 OVC055 20/15 A3025 RMK AO2 SLP244
                 T02000150 402330189 $ =
2018-09-20 23:51 METAR KEWR 210351Z 16008KT 10SM BKN024 BKN035 OVC055 20/16 A3026 RMK AO2 SLP245
                 T02000156 $ =
2018-09-20 23:36 METAR KEWR 210336Z 15006KT 10SM BKN024 BKN035 OVC055 20/16 A3026 RMK AO2
                 T02000156 $ =
2018-09-20 22:51 METAR KEWR 210251Z 16008KT 10SM SCT022 BKN037 OVC055 20/16 A3025 RMK AO2 SLP242
                 T02000156 51008 $ =
2018-09-20 21:51 METAR KEWR 210151Z 15006KT 10SM FEW020 FEW037 OVC055 20/16 A3024 RMK AO2 SLP241
                 T02000156 $ =
2018-09-20 20:51 METAR KEWR 210051Z 17007KT 10SM FEW022 SCT035 OVC055 20/16 A3024 RMK AO2 SLP240
                 T02000156 $ =
2018-09-20 19:51 METAR KEWR 202351Z 15010KT 10SM FEW032 OVC050 20/15 A3023 RMK AO2 SLP235
                 T02000150 10233 20200 50009 $ =
2018-09-20 18:51 METAR KEWR 202251Z 16007KT 10SM FEW035 BKN050 BKN250 21/15 A3023 RMK AO2 SLP236
                 T02060150 $ =
2018-09-20 17:51 METAR KEWR 202151Z 16007KT 10SM FEW033 BKN050 BKN250 21/15 A3022 RMK AO2 SLP234
                 T02110150 $ =
2018-09-20 16:51 METAR KEWR 202051Z 18007KT 10SM FEW032 SCT038 BKN055 22/14 A3020 RMK AO2 SLP226
                 T02220144 56009 $ =
2018-09-20 15:51 METAR KEWR 201951Z 00000KT 10SM FEW032 BKN038 BKN055 23/14 A3021 RMK AO2 SLP228
                 T02280139 $ =
2018-09-20 14:51 METAR KEWR 201851Z 00000KT 10SM FEW032 BKN036 OVC060 22/14 A3021 RMK AO2 SLP230
                 T02220139 $ =
2018-09-20 13:51 METAR KEWR 201751Z VRB04KT 10SM FEW030 BKN036 OVC055 22/14 A3023 RMK AO2 SLP235
                 T02220139 10222 20189 58003 $ =
2018-09-20 12:51 METAR KEWR 201651Z VRB04KT 10SM FEW025 SCT035 OVC050 21/14 A3024 RMK AO2 SLP239
                 T02110139 $ =
2018-09-20 11:51 METAR KEWR 201551Z VRB03KT 10SM FEW025 BKN035 OVC050 21/14 A3024 RMK AO2 SLP241
                 T02110139 $ =
2018-09-20 10:51 METAR KEWR 201451Z 00000KT 10SM FEW023 SCT027 OVC032 20/14 A3024 RMK AO2 SLP238
                 SCT V BKN T02000144 51016 $ =
2018-09-20 09:51 METAR KEWR 201351Z VRB03KT 10SM OVC027 19/14 A3023 RMK AO2 SLP234 CIG 025V030
                 T01940139 $ =
2018-09-20 08:51 METAR KEWR 201251Z 09005KT 10SM BKN026 OVC034 19/13 A3020 RMK AO2 SLP227
                 T01940133 $ =
2018-09-20 07:51 METAR KEWR 201151Z 09006KT 10SM BKN024 OVC032 19/14 A3019 RMK AO2 SLP222 60001
                 70001 T01890139 10200 20189 53026 =
2018-09-20 06:51 METAR KEWR 201051Z 10006KT 10SM BKN022 OVC030 19/14 A3015 RMK AO2 SLP210
                 T01890139 =
2018-09-20 05:51 METAR KEWR 200951Z 09005KT 10SM OVC020 19/15 A3013 RMK AO2 RAE29 SLP202 P0000
                 T01890150 =
2018-09-20 04:51 METAR KEWR 200851Z 08008KT 10SM -RA OVC022 19/15 A3011 RMK AO2 RAB49 SLP196
                 P0000 60001 T01890150 53010 =

Support USWX by starting your Amazon purchase here.